Time;durP1;ratioP1;P1;durP2;ratioP2;P2;SDS_P1;SDS_P2;PMS_P1;PMS_P2;Temp;Humidity;BMP_temperature;BMP_pressure;BME280_temperature;BME280_humidity;BME280_pressure;Samples;Min_cycle;Max_cycle;Signal;HPM_P1;HPM_P2
2022/05/07 00:01:30;;;;;;;4.88;2.90;;;;;;;14.69;54.90;99493.50;4993570;28;20033;-80
2022/05/07 00:03:56;;;;;;;3.50;3.20;;;;;;;14.65;55.07;99495.09;4984368;28;20040;-80
2022/05/07 00:06:21;;;;;;;3.25;2.78;;;;;;;14.62;54.95;99504.47;4998623;28;20026;-80
2022/05/07 00:08:46;;;;;;;3.00;2.45;;;;;;;14.57;54.96;99487.53;4984390;28;20091;-80
2022/05/07 00:11:15;;;;;;;2.85;2.65;;;;;;;14.58;55.39;99481.88;4996247;28;20041;-80
2022/05/07 00:13:41;;;;;;;3.22;2.70;;;;;;;14.58;55.12;99495.31;4988643;28;20424;-80
2022/05/07 00:18:50;;;;;;;3.30;2.80;;;;;;;14.51;55.12;99492.03;4998358;28;20032;-80
2022/05/07 00:21:15;;;;;;;3.88;2.90;;;;;;;14.47;55.08;99490.13;4982898;28;20038;-80
2022/05/07 00:23:41;;;;;;;2.80;2.60;;;;;;;14.46;55.47;99486.63;4989927;28;20092;-80
2022/05/07 00:26:06;;;;;;;3.38;2.80;;;;;;;14.42;55.58;99492.75;5018857;28;20034;-80
2022/05/07 00:28:32;;;;;;;5.28;2.70;;;;;;;14.40;55.23;99486.84;5018564;28;20037;-80
2022/05/07 00:30:57;;;;;;;2.95;2.65;;;;;;;14.38;55.40;99489.78;4993204;28;20473;-80
2022/05/07 00:33:22;;;;;;;2.90;2.70;;;;;;;14.37;55.30;99490.88;5010722;28;20279;-80
2022/05/07 00:35:47;;;;;;;2.75;2.35;;;;;;;14.30;55.57;99495.66;5025479;28;20146;-80
2022/05/07 00:38:13;;;;;;;3.88;2.80;;;;;;;14.24;55.15;99491.28;4988717;28;20034;-80
2022/05/07 00:40:38;;;;;;;4.45;2.92;;;;;;;14.26;55.34;99481.88;4985216;28;20465;-80
2022/05/07 00:43:03;;;;;;;3.13;2.65;;;;;;;14.25;55.46;99492.88;5022990;28;20040;-80
2022/05/07 00:45:29;;;;;;;2.70;2.50;;;;;;;14.22;55.66;99493.38;5008893;28;20481;-79
2022/05/07 00:47:54;;;;;;;2.60;2.40;;;;;;;14.19;55.39;99484.00;5004924;28;20034;-79
2022/05/07 00:53:04;;;;;;;2.85;2.60;;;;;;;14.18;55.57;99492.28;5021935;28;20591;-80
2022/05/07 00:55:31;;;;;;;2.60;2.40;;;;;;;14.13;55.77;99484.19;5025530;28;20033;-80
2022/05/07 00:57:56;;;;;;;2.90;2.70;;;;;;;14.11;55.63;99483.63;5022881;28;20068;-79
2022/05/07 01:00:22;;;;;;;4.32;2.95;;;;;;;14.06;55.54;99476.34;5007920;28;20029;-80
2022/05/07 01:02:47;;;;;;;3.10;2.45;;;;;;;14.06;55.76;99480.91;5024930;28;20432;-80
2022/05/07 01:05:12;;;;;;;3.20;2.90;;;;;;;14.01;55.84;99483.53;5006775;28;20041;-80
2022/05/07 01:07:38;;;;;;;3.08;2.75;;;;;;;13.99;55.98;99481.13;5008405;28;20541;-80
2022/05/07 01:10:04;;;;;;;2.90;2.60;;;;;;;14.04;55.80;99478.47;4990755;28;20417;-80
2022/05/07 01:12:30;;;;;;;4.13;3.15;;;;;;;13.96;55.89;99470.88;5007701;28;20184;-80
2022/05/07 01:14:57;;;;;;;3.08;2.80;;;;;;;13.91;56.12;99467.34;5002889;28;20521;-80
2022/05/07 01:17:22;;;;;;;2.83;2.63;;;;;;;13.97;55.83;99477.06;5005190;28;20069;-80
2022/05/07 01:19:51;;;;;;;5.85;3.25;;;;;;;13.88;55.99;99467.84;4993066;28;20060;-80
2022/05/07 01:22:16;;;;;;;2.83;2.63;;;;;;;13.88;55.74;99482.09;5022473;28;20099;-80
2022/05/07 01:24:42;;;;;;;3.72;2.42;;;;;;;13.90;56.18;99476.47;5006089;28;20397;-80
2022/05/07 01:27:07;;;;;;;3.58;3.20;;;;;;;14.01;55.54;99478.19;5004063;28;20059;-80
2022/05/07 01:29:32;;;;;;;3.20;2.53;;;;;;;13.89;55.83;99469.50;4979837;28;20557;-80
2022/05/07 01:31:57;;;;;;;2.60;2.40;;;;;;;13.86;55.98;99475.34;4991401;28;20029;-80
2022/05/07 01:34:23;;;;;;;3.35;2.83;;;;;;;13.98;55.73;99476.81;4991447;28;20044;-80
2022/05/07 01:36:48;;;;;;;3.33;2.85;;;;;;;13.89;55.98;99472.16;5005523;28;20037;-80
2022/05/07 01:39:13;;;;;;;3.00;2.80;;;;;;;13.96;56.04;99472.75;4989856;28;20030;-80
2022/05/07 01:41:38;;;;;;;4.03;2.88;;;;;;;13.92;55.57;99467.09;5022688;28;20116;-80
2022/05/07 01:44:04;;;;;;;3.65;3.15;;;;;;;13.92;55.63;99463.59;5006422;28;20033;-80
2022/05/07 01:49:13;;;;;;;4.35;2.65;;;;;;;13.83;55.80;99470.47;5026524;28;20290;-80
2022/05/07 01:51:38;;;;;;;4.10;3.28;;;;;;;13.96;55.88;99475.44;5004062;28;20120;-80
2022/05/07 01:54:04;;;;;;;3.67;3.15;;;;;;;13.86;55.61;99475.34;4990216;28;20029;-80
2022/05/07 01:56:29;;;;;;;3.08;2.80;;;;;;;13.84;55.88;99464.06;5023615;28;20025;-80
2022/05/07 01:58:55;;;;;;;3.15;2.85;;;;;;;13.81;55.74;99461.88;5017902;28;20026;-80
2022/05/07 02:01:20;;;;;;;7.38;3.03;;;;;;;13.80;55.77;99466.47;4988885;28;20041;-80
2022/05/07 02:03:46;;;;;;;3.65;3.22;;;;;;;13.85;55.59;99468.34;5007473;28;20049;-80
2022/05/07 02:06:12;;;;;;;3.30;3.00;;;;;;;13.71;56.12;99467.16;4992090;28;20033;-80
2022/05/07 02:08:37;;;;;;;6.13;3.42;;;;;;;13.81;55.76;99469.94;5025702;28;20115;-80
2022/05/07 02:11:02;;;;;;;3.60;2.92;;;;;;;13.72;56.39;99466.06;4992589;28;20246;-80
2022/05/07 02:13:28;;;;;;;4.40;3.08;;;;;;;13.79;55.73;99472.88;5006042;28;20033;-80
2022/05/07 02:15:54;;;;;;;3.60;3.13;;;;;;;13.69;55.83;99472.78;5006183;28;20111;-80
2022/05/07 02:18:19;;;;;;;3.13;2.50;;;;;;;13.56;56.27;99470.50;5021453;28;20033;-80
2022/05/07 02:20:44;;;;;;;5.47;3.30;;;;;;;13.58;55.95;99457.66;5004074;28;20159;-80
2022/05/07 02:23:10;;;;;;;6.60;3.33;;;;;;;13.68;55.59;99467.66;5004554;28;20122;-80
2022/05/07 02:25:35;;;;;;;3.40;2.95;;;;;;;13.69;55.90;99469.28;4989084;28;20038;-80
2022/05/07 02:28:00;;;;;;;5.75;3.28;;;;;;;13.73;55.89;99471.22;4994518;28;20119;-80
2022/05/07 02:30:26;;;;;;;5.40;3.97;;;;;;;13.66;55.54;99465.22;5009513;28;20048;-80
2022/05/07 02:32:51;;;;;;;3.50;3.20;;;;;;;13.53;56.31;99471.81;5023996;28;20025;-80
2022/05/07 02:35:17;;;;;;;3.22;3.03;;;;;;;13.54;56.20;99462.69;5005188;28;20029;-79
2022/05/07 02:37:42;;;;;;;3.08;2.78;;;;;;;13.54;56.18;99467.28;5002963;28;20508;-80
2022/05/07 02:40:08;;;;;;;3.97;3.17;;;;;;;13.60;55.95;99462.75;5007132;28;20041;-80
2022/05/07 02:42:33;;;;;;;4.90;3.40;;;;;;;13.56;55.60;99469.69;5024239;28;20531;-80
2022/05/07 02:45:01;;;;;;;5.53;2.78;;;;;;;13.50;56.11;99460.75;5015574;28;20126;-80
2022/05/07 02:47:26;;;;;;;3.60;3.28;;;;;;;13.53;55.96;99465.63;5017447;28;20052;-80
2022/05/07 02:49:51;;;;;;;3.10;2.80;;;;;;;13.47;56.44;99464.78;4981508;28;20127;-80
2022/05/07 02:52:17;;;;;;;3.03;2.83;;;;;;;13.58;56.13;99452.28;5000320;28;20573;-80
2022/05/07 02:54:42;;;;;;;5.72;3.10;;;;;;;13.56;55.74;99461.63;5006733;28;20033;-80
2022/05/07 02:57:07;;;;;;;4.28;3.17;;;;;;;13.49;56.21;99468.03;4991442;28;20111;-80
2022/05/07 02:59:33;;;;;;;5.18;2.97;;;;;;;13.49;56.02;99468.03;5022686;28;20115;-80
2022/05/07 03:01:58;;;;;;;3.13;2.83;;;;;;;13.41;56.03;99457.72;5004155;28;20033;-80
2022/05/07 03:04:24;;;;;;;3.60;3.00;;;;;;;13.43;55.80;99470.91;5004711;28;20053;-80
2022/05/07 03:06:49;;;;;;;3.38;2.72;;;;;;;13.41;56.25;99471.13;5024444;28;20037;-80
2022/05/07 03:09:14;;;;;;;3.28;2.92;;;;;;;13.28;56.38;99468.03;5025612;28;20436;-80
2022/05/07 03:11:39;;;;;;;4.38;3.10;;;;;;;13.37;56.42;99461.16;5003313;28;20033;-80
2022/05/07 03:14:07;;;;;;;3.63;3.10;;;;;;;13.39;55.92;99464.38;4989521;28;20034;-80
2022/05/07 03:16:38;;;;;;;3.90;3.15;;;;;;;13.36;56.05;99472.97;5023546;28;20044;-80
2022/05/07 03:19:04;;;;;;;4.95;2.78;;;;;;;13.31;56.19;99473.72;5022951;28;20550;-80
2022/05/07 03:21:29;;;;;;;3.58;3.28;;;;;;;13.29;56.14;99478.50;5005792;28;20136;-80
2022/05/07 03:23:54;;;;;;;3.58;2.70;;;;;;;13.31;56.25;99470.22;5008774;28;20076;-80
2022/05/07 03:26:22;;;;;;;3.92;3.58;;;;;;;13.25;56.26;99465.84;4983802;28;20068;-80
2022/05/07 03:28:47;;;;;;;6.13;3.65;;;;;;;13.13;56.29;99465.97;4985754;28;20022;-80
2022/05/07 03:31:13;;;;;;;3.90;3.05;;;;;;;13.21;56.55;99478.97;5006360;28;20048;-79
2022/05/07 03:33:39;;;;;;;4.07;3.67;;;;;;;13.09;56.37;99475.56;5024319;28;20079;-80
2022/05/07 03:36:05;;;;;;;3.35;2.67;;;;;;;13.29;56.26;99480.38;5004957;28;20057;-80
2022/05/07 03:38:30;;;;;;;3.00;2.80;;;;;;;13.23;56.13;99474.16;5005732;28;20495;-79
2022/05/07 03:40:56;;;;;;;3.60;3.30;;;;;;;13.12;56.48;99475.09;5002741;28;20108;-80
2022/05/07 03:43:21;;;;;;;4.95;3.05;;;;;;;13.16;56.17;99470.84;5026049;28;20119;-80
2022/05/07 03:45:46;;;;;;;4.53;3.33;;;;;;;13.14;56.50;99475.66;5005251;28;20033;-80
2022/05/07 03:48:12;;;;;;;4.75;3.38;;;;;;;13.06;56.30;99470.69;5005078;28;20025;-80
2022/05/07 03:50:37;;;;;;;3.75;3.20;;;;;;;13.09;56.57;99472.06;5003025;28;20403;-80
2022/05/07 03:55:47;;;;;;;5.28;3.30;;;;;;;13.06;56.55;99470.69;5021451;28;20078;-80
2022/05/07 03:58:16;;;;;;;3.95;3.15;;;;;;;13.04;56.50;99464.75;5010114;28;20026;-80
2022/05/07 04:00:42;;;;;;;3.70;3.33;;;;;;;13.09;56.60;99467.53;4991813;28;20068;-80
2022/05/07 04:03:08;;;;;;;5.57;3.72;;;;;;;12.99;56.47;99475.44;5008279;28;20065;-80
2022/05/07 04:05:33;;;;;;;5.07;3.50;;;;;;;13.04;56.98;99472.78;5028964;28;20481;-80
2022/05/07 04:07:59;;;;;;;4.60;3.67;;;;;;;13.02;56.68;99466.88;5025531;28;20029;-80
2022/05/07 04:10:24;;;;;;;4.07;3.53;;;;;;;13.01;56.61;99473.31;5005637;28;20088;-80
2022/05/07 04:12:51;;;;;;;5.30;3.72;;;;;;;13.05;56.92;99468.28;5004123;28;20029;-80
2022/05/07 04:15:19;;;;;;;5.63;3.35;;;;;;;12.95;57.25;99471.63;5010908;28;20127;-80
2022/05/07 04:17:45;;;;;;;4.65;3.45;;;;;;;12.99;57.05;99472.75;5009966;28;20037;-80
2022/05/07 04:20:11;;;;;;;5.13;4.07;;;;;;;12.95;57.36;99471.63;5026185;28;20032;-80
2022/05/07 04:22:37;;;;;;;3.30;3.00;;;;;;;13.05;57.10;99476.31;4994796;28;20489;-80
2022/05/07 04:25:06;;;;;;;3.67;3.25;;;;;;;12.99;57.05;99470.06;5007887;28;20041;-80
2022/05/07 04:27:32;;;;;;;8.02;3.40;;;;;;;12.91;57.52;99481.19;5006617;28;20017;-80
2022/05/07 04:29:57;;;;;;;4.53;2.90;;;;;;;12.96;57.13;99475.09;4990837;28;20064;-79
2022/05/07 04:32:24;;;;;;;4.70;3.53;;;;;;;13.06;57.65;99478.75;5011481;28;20112;-79
2022/05/07 04:34:49;;;;;;;4.13;3.72;;;;;;;13.11;57.16;99488.72;5007045;28;20079;-79
2022/05/07 04:37:14;;;;;;;4.03;3.45;;;;;;;13.21;56.92;99486.19;4983493;28;20077;-80
2022/05/07 04:39:39;;;;;;;5.50;3.60;;;;;;;13.29;57.18;99486.56;5026607;28;20032;-80
2022/05/07 04:42:05;;;;;;;5.95;3.53;;;;;;;13.30;56.91;99482.78;4997005;28;20470;-80
2022/05/07 04:44:30;;;;;;;3.95;3.30;;;;;;;13.45;56.83;99487.53;5008197;28;20026;-79
2022/05/07 04:46:55;;;;;;;10.45;3.47;;;;;;;13.54;56.67;99483.34;5004980;28;20033;-80
2022/05/07 04:49:22;;;;;;;4.40;3.75;;;;;;;13.70;56.55;99481.63;5008966;28;20506;-80
2022/05/07 04:51:50;;;;;;;4.18;3.30;;;;;;;13.75;56.28;99484.38;4996590;28;20732;-80
2022/05/07 04:54:17;;;;;;;4.60;3.30;;;;;;;13.67;57.04;99491.00;5003397;28;20033;-79
2022/05/07 04:56:43;;;;;;;4.05;3.22;;;;;;;13.69;56.49;99488.06;5025596;28;20037;-79
2022/05/07 04:59:08;;;;;;;5.20;3.40;;;;;;;13.66;56.76;99485.88;4990516;28;20533;-79
2022/05/07 05:01:33;;;;;;;5.43;3.67;;;;;;;13.56;57.37;99489.28;5005205;28;20037;-79
2022/05/07 05:03:59;;;;;;;5.80;3.78;;;;;;;13.42;57.85;99482.66;5000997;28;20029;-79
2022/05/07 05:06:24;;;;;;;4.13;3.22;;;;;;;13.38;58.00;99477.00;4985291;28;20485;-79
2022/05/07 05:08:49;;;;;;;4.63;3.10;;;;;;;13.45;58.09;99490.22;4984380;28;20030;-79
2022/05/07 05:11:14;;;;;;;4.78;3.42;;;;;;;13.41;58.06;99483.75;5006210;28;20155;-79
2022/05/07 05:13:40;;;;;;;4.05;3.75;;;;;;;13.43;58.32;99493.13;4989306;28;20426;-79
2022/05/07 05:16:05;;;;;;;5.43;3.50;;;;;;;13.46;58.27;99495.31;4989336;28;20030;-79
2022/05/07 05:18:30;;;;;;;3.92;3.45;;;;;;;13.61;58.37;99499.25;4988932;28;20061;-80
2022/05/07 05:20:55;;;;;;;7.60;3.70;;;;;;;13.54;58.24;99497.56;5007579;28;20033;-79
2022/05/07 05:23:22;;;;;;;3.38;3.08;;;;;;;13.60;58.09;99500.31;4993641;28;20082;-79
2022/05/07 05:25:48;;;;;;;3.95;3.55;;;;;;;13.67;58.15;99501.75;5005873;28;20060;-79
2022/05/07 05:28:13;;;;;;;3.75;3.35;;;;;;;13.70;58.42;99495.84;5023380;28;20037;-79
2022/05/07 05:30:40;;;;;;;4.68;3.92;;;;;;;13.74;58.11;99505.00;4986152;28;20037;-79
2022/05/07 05:33:06;;;;;;;5.32;3.42;;;;;;;13.72;57.95;99500.97;5009665;28;20508;-79
2022/05/07 05:35:31;;;;;;;3.60;3.30;;;;;;;13.72;58.39;99507.13;4985795;28;20034;-79
2022/05/07 05:37:56;;;;;;;4.78;3.83;;;;;;;13.78;58.34;99508.03;4975546;28;20577;-79
2022/05/07 05:40:21;;;;;;;5.13;3.53;;;;;;;13.80;58.27;99508.56;4983929;28;20029;-79
2022/05/07 05:42:47;;;;;;;4.07;2.95;;;;;;;13.92;58.45;99509.22;4999283;28;20026;-79
2022/05/07 05:45:12;;;;;;;5.03;3.42;;;;;;;13.88;58.40;99505.41;4973594;28;20401;-79
2022/05/07 05:47:37;;;;;;;4.75;3.72;;;;;;;13.99;58.21;99507.97;4987808;28;20068;-79
2022/05/07 05:50:03;;;;;;;5.32;3.63;;;;;;;13.93;58.29;99506.31;4972493;28;20080;-79
2022/05/07 05:52:28;;;;;;;3.47;3.17;;;;;;;13.95;58.57;99506.03;5025490;28;20147;-79
2022/05/07 05:54:54;;;;;;;5.45;4.00;;;;;;;13.96;58.36;99513.00;5007820;28;20034;-79
2022/05/07 05:57:19;;;;;;;3.28;2.97;;;;;;;13.99;58.47;99509.84;5002354;28;20033;-79
2022/05/07 05:59:44;;;;;;;3.55;3.25;;;;;;;14.02;58.29;99509.34;4990600;28;20037;-79
2022/05/07 06:02:10;;;;;;;5.20;3.85;;;;;;;14.04;57.69;99515.25;5023913;28;20075;-79
2022/05/07 06:04:35;;;;;;;4.28;3.55;;;;;;;14.09;58.28;99516.09;5008255;28;20409;-79
2022/05/07 06:07:00;;;;;;;5.47;3.85;;;;;;;14.09;57.89;99512.59;5018804;28;20030;-79
2022/05/07 06:09:28;;;;;;;3.95;3.33;;;;;;;14.21;58.26;99518.63;5003507;28;20710;-79
2022/05/07 06:11:56;;;;;;;4.43;3.55;;;;;;;14.23;58.58;99511.13;5004904;28;20116;-81
2022/05/07 06:14:22;;;;;;;9.43;5.57;;;;;;;14.31;61.19;99512.56;5006703;28;20095;-78
2022/05/07 06:16:47;;;;;;;11.60;5.03;;;;;;;14.25;61.34;99512.50;5006744;28;20029;-78
2022/05/07 06:19:12;;;;;;;12.23;5.10;;;;;;;14.27;60.72;99512.22;5003807;28;20397;-78
2022/05/07 06:21:38;;;;;;;5.97;4.03;;;;;;;14.25;60.29;99512.50;5007369;28;20044;-78
2022/05/07 06:29:32;;;;;;;5.60;4.10;;;;;;;14.38;59.93;99526.56;5004511;28;20045;-78
2022/05/07 06:31:57;;;;;;;8.32;5.05;;;;;;;14.42;60.14;99517.75;5004078;28;20029;-78
2022/05/07 06:34:24;;;;;;;5.13;4.57;;;;;;;14.42;60.27;99516.94;4981309;28;20397;-78
2022/05/07 06:36:49;;;;;;;7.78;4.90;;;;;;;14.49;60.76;99522.91;5002562;28;20032;-78
2022/05/07 06:39:17;;;;;;;6.28;4.45;;;;;;;14.49;60.39;99520.22;5001616;28;20429;-78
2022/05/07 06:41:42;;;;;;;5.22;4.30;;;;;;;14.45;61.07;99517.25;5003424;28;20098;-78
2022/05/07 06:44:07;;;;;;;5.55;5.00;;;;;;;14.51;60.14;99521.59;4993927;28;20112;-78
2022/05/07 06:46:33;;;;;;;6.10;5.05;;;;;;;14.50;60.28;99524.53;4990816;28;20343;-79
2022/05/07 06:48:58;;;;;;;9.85;4.80;;;;;;;14.53;60.54;99524.00;4994247;28;20033;-79
2022/05/07 06:51:24;;;;;;;6.57;5.75;;;;;;;14.52;60.68;99522.41;4985454;28;20550;-78
2022/05/07 06:53:49;;;;;;;5.18;4.68;;;;;;;14.54;60.25;99515.72;5002166;28;20436;-78
2022/05/07 06:56:15;;;;;;;8.40;5.22;;;;;;;14.65;60.66;99530.84;5000996;28;20025;-78
2022/05/07 06:58:41;;;;;;;5.80;5.20;;;;;;;14.62;60.70;99525.97;5010685;28;20390;-78
2022/05/07 07:01:07;;;;;;;6.38;4.90;;;;;;;14.68;60.50;99529.50;5001435;28;20029;-78
2022/05/07 07:03:33;;;;;;;5.95;4.43;;;;;;;14.71;60.64;99529.81;5022709;28;20029;-78
2022/05/07 07:05:59;;;;;;;6.18;4.78;;;;;;;14.75;60.72;99527.41;5022444;28;20038;-78
2022/05/07 07:08:25;;;;;;;7.93;5.10;;;;;;;14.84;60.70;99528.53;4997180;28;20123;-78
2022/05/07 07:10:50;;;;;;;5.18;4.68;;;;;;;14.90;60.27;99532.88;5011320;28;20028;-78
2022/05/07 07:13:18;;;;;;;9.70;5.35;;;;;;;14.92;60.30;99526.16;5002359;28;20403;-78
2022/05/07 07:15:44;;;;;;;5.65;4.88;;;;;;;14.94;60.27;99515.97;5005901;28;20408;-79
2022/05/07 07:18:10;;;;;;;6.97;4.93;;;;;;;14.97;60.38;99520.81;5006195;28;20092;-78
2022/05/07 07:20:41;;;;;;;5.63;5.10;;;;;;;15.09;60.55;99527.88;5021242;28;20393;-79
2022/05/07 07:23:10;;;;;;;6.05;4.82;;;;;;;15.14;60.25;99528.72;4989616;28;20026;-78
2022/05/07 07:25:35;;;;;;;6.68;5.00;;;;;;;15.18;59.89;99515.56;4993519;28;20037;-79
2022/05/07 07:28:00;;;;;;;7.43;5.63;;;;;;;15.23;59.95;99527.13;4996141;28;20435;-78
2022/05/07 07:30:26;;;;;;;9.55;4.70;;;;;;;15.24;59.54;99519.88;5006176;28;20235;-78
2022/05/07 07:32:51;;;;;;;7.50;5.70;;;;;;;15.27;59.60;99530.09;4991590;28;20033;-78
2022/05/07 07:35:17;;;;;;;7.57;5.13;;;;;;;15.33;59.49;99524.47;4992358;28;20036;-78
2022/05/07 07:37:45;;;;;;;10.35;5.35;;;;;;;15.37;59.81;99530.16;4988924;28;20509;-79
2022/05/07 07:40:12;;;;;;;5.85;4.95;;;;;;;15.45;60.09;99525.13;4978884;28;20041;-80
2022/05/07 07:42:39;;;;;;;6.93;5.80;;;;;;;15.49;60.21;99522.69;5002661;28;20095;-80
2022/05/07 07:47:59;;;;;;;6.25;5.13;;;;;;;15.60;60.55;99519.78;5006891;28;20045;-80
2022/05/07 07:50:31;;;;;;;7.82;5.60;;;;;;;15.70;60.55;99519.03;4969135;28;20393;-80
2022/05/07 07:52:58;;;;;;;6.88;5.35;;;;;;;15.71;60.11;99510.66;5001363;28;20473;-78
2022/05/07 07:55:23;;;;;;;6.63;5.72;;;;;;;15.78;60.40;99507.72;5001265;28;20033;-78
2022/05/07 07:57:52;;;;;;;7.70;5.32;;;;;;;15.88;60.71;99515.03;4988154;28;20390;-78
2022/05/07 08:00:17;;;;;;;7.88;6.38;;;;;;;15.93;60.82;99510.44;4999767;28;20416;-78
2022/05/07 08:02:51;;;;;;;7.60;5.82;;;;;;;16.04;60.70;99522.03;4996509;28;20034;-78
2022/05/07 08:05:17;;;;;;;9.48;6.45;;;;;;;16.12;60.76;99524.22;5022416;28;20112;-78
2022/05/07 08:13:11;;;;;;;11.70;6.43;;;;;;;16.41;60.63;99514.53;5023719;28;20397;-78
2022/05/07 08:15:36;;;;;;;8.80;6.22;;;;;;;16.69;59.52;99510.47;4989360;28;20033;-78
2022/05/07 08:18:01;;;;;;;8.88;7.00;;;;;;;16.73;60.13;99506.97;5002656;28;20172;-78
2022/05/07 08:20:27;;;;;;;8.43;6.78;;;;;;;17.04;60.04;99513.94;4988552;28;20120;-78
2022/05/07 08:22:52;;;;;;;10.85;7.25;;;;;;;17.04;59.66;99507.72;4989507;28;20029;-78
2022/05/07 08:25:17;;;;;;;9.07;6.97;;;;;;;17.20;59.94;99523.59;4984807;28;20091;-78
2022/05/07 08:27:43;;;;;;;7.35;6.50;;;;;;;17.08;60.05;99519.59;5007816;28;20034;-78
2022/05/07 08:30:08;;;;;;;8.57;6.63;;;;;;;17.16;59.95;99511.75;5004457;28;20038;-77
2022/05/07 08:32:33;;;;;;;8.23;6.25;;;;;;;17.15;59.75;99512.00;5004093;28;20040;-78
2022/05/07 08:34:59;;;;;;;9.75;6.00;;;;;;;17.19;59.77;99502.28;4979089;28;20505;-78
2022/05/07 08:37:24;;;;;;;9.70;7.45;;;;;;;17.21;59.81;99505.53;4980980;28;20030;-78
2022/05/07 08:39:49;;;;;;;10.75;7.55;;;;;;;17.35;59.86;99519.22;4985446;28;20156;-78
2022/05/07 08:42:15;;;;;;;11.85;7.93;;;;;;;17.56;59.37;99512.69;5003735;28;20084;-78
2022/05/07 08:44:40;;;;;;;10.88;7.53;;;;;;;17.62;59.68;99508.88;5003385;28;20039;-78
2022/05/07 08:47:06;;;;;;;9.70;7.65;;;;;;;17.65;59.61;99513.69;5004071;28;20040;-78
2022/05/07 08:49:31;;;;;;;10.98;8.10;;;;;;;17.84;59.52;99501.97;5022825;28;20021;-78
2022/05/07 08:51:57;;;;;;;9.48;7.90;;;;;;;18.05;59.55;99504.56;4974972;28;20064;-78
2022/05/07 08:54:23;;;;;;;11.20;7.82;;;;;;;18.41;58.77;99503.22;5002458;28;20494;-79
2022/05/07 08:56:48;;;;;;;14.38;7.95;;;;;;;18.37;58.62;99494.06;4996679;28;20117;-78
2022/05/07 08:59:14;;;;;;;8.98;7.68;;;;;;;18.39;58.82;99502.69;4995226;28;20065;-78
2022/05/07 09:01:39;;;;;;;12.45;8.90;;;;;;;18.58;58.18;99506.34;5004758;28;20037;-78
2022/05/07 09:04:11;;;;;;;10.80;8.23;;;;;;;18.72;57.95;99499.16;5028434;28;20048;-78
2022/05/07 09:06:37;;;;;;;9.98;7.35;;;;;;;18.87;57.94;99503.63;5005915;28;20421;-79
2022/05/07 09:09:06;;;;;;;11.68;8.05;;;;;;;18.93;57.60;99500.59;5006893;28;20037;-78
2022/05/07 09:11:42;;;;;;;8.95;7.47;;;;;;;18.92;57.59;99507.06;5021502;28;20515;-78
2022/05/07 09:14:08;;;;;;;11.15;7.88;;;;;;;19.07;57.17;99500.69;4993486;28;20128;-78
2022/05/07 09:16:42;;;;;;;11.15;7.53;;;;;;;19.10;57.56;99503.63;4989876;28;20421;-78
2022/05/07 09:19:30;;;;;;;8.93;6.50;;;;;;;19.27;57.65;99495.84;5022301;28;20030;-78
2022/05/07 09:22:06;;;;;;;10.43;7.38;;;;;;;19.12;57.09;99498.75;5024802;28;20033;-78
2022/05/07 09:24:31;;;;;;;8.10;6.75;;;;;;;19.17;56.44;99500.59;5024692;28;20052;-78
2022/05/07 09:26:57;;;;;;;10.15;7.50;;;;;;;19.10;56.44;99500.13;5018998;28;20040;-78
2022/05/07 09:29:26;;;;;;;9.20;6.97;;;;;;;19.00;56.37;99497.53;5026638;28;20009;-79
2022/05/07 09:31:52;;;;;;;10.13;7.70;;;;;;;18.97;56.07;99498.91;5003280;28;20064;-79
2022/05/07 09:37:19;;;;;;;12.43;7.32;;;;;;;18.96;55.34;99496.50;5021579;28;20040;-79
2022/05/07 09:39:49;;;;;;;9.10;7.50;;;;;;;18.94;55.49;99502.19;5024448;28;20087;-79
2022/05/07 09:42:18;;;;;;;8.88;7.05;;;;;;;18.86;54.51;99492.00;5024008;28;20026;-79
2022/05/07 09:44:45;;;;;;;8.40;6.80;;;;;;;18.91;54.30;99489.25;5023266;28;20107;-79
2022/05/07 09:47:12;;;;;;;9.27;6.32;;;;;;;18.90;53.84;99481.38;4992104;28;20448;-79
2022/05/07 09:50:20;;;;;;;7.28;5.90;;;;;;;18.91;53.99;99478.41;5020120;28;20067;-79
2022/05/07 09:52:27;;;;;;;7.88;5.70;;;;;;;19.00;53.32;99484.78;5022293;28;20040;-79
2022/05/07 09:57:38;;;;;;;7.13;5.88;;;;;;;19.43;52.77;99470.25;5002492;28;20048;-80
2022/05/07 10:00:15;;;;;;;7.50;5.88;;;;;;;19.56;52.83;99473.31;5005013;28;20034;-81
2022/05/07 10:03:05;;;;;;;6.78;5.63;;;;;;;19.61;52.97;99470.53;4992169;28;20063;-80
2022/05/07 10:06:07;;;;;;;6.50;5.63;;;;;;;19.69;52.87;99469.88;4999899;28;20029;-81
2022/05/07 10:08:55;;;;;;;7.75;5.38;;;;;;;19.77;52.65;99478.16;5003885;28;20033;-81
2022/05/07 10:11:20;;;;;;;8.73;5.70;;;;;;;19.86;52.60;99473.69;5008893;28;20029;-80
2022/05/07 10:13:53;;;;;;;7.72;5.25;;;;;;;19.95;52.30;99468.41;5008617;28;20029;-79
2022/05/07 10:16:23;;;;;;;6.45;5.30;;;;;;;19.93;52.20;99463.28;4973544;28;20029;-80
2022/05/07 10:18:49;;;;;;;9.20;5.25;;;;;;;19.95;51.93;99471.13;5005381;28;20025;-80
2022/05/07 10:21:17;;;;;;;6.25;5.38;;;;;;;20.01;52.04;99469.94;5005621;28;20481;-80
2022/05/07 10:23:54;;;;;;;5.68;4.97;;;;;;;20.00;52.04;99477.28;4998216;28;20056;-81
2022/05/07 10:26:36;;;;;;;6.72;5.03;;;;;;;19.98;52.22;99467.84;5021604;28;20029;-81
2022/05/07 10:29:03;;;;;;;6.72;5.40;;;;;;;19.95;52.33;99466.50;5020562;28;20099;-81
2022/05/07 10:31:29;;;;;;;7.32;5.40;;;;;;;19.93;52.62;99465.19;5008410;28;20397;-81
2022/05/07 10:33:55;;;;;;;6.25;4.78;;;;;;;19.90;51.71;99461.16;5005725;28;20044;-81
2022/05/07 10:36:21;;;;;;;12.50;6.25;;;;;;;19.89;52.11;99464.16;4987788;28;20030;-80
2022/05/07 10:38:47;;;;;;;5.88;5.28;;;;;;;19.88;51.96;99457.94;4987186;28;20030;-80
2022/05/07 10:41:12;;;;;;;5.68;5.10;;;;;;;19.95;51.24;99452.16;5023425;28;20025;-80
2022/05/07 10:43:42;;;;;;;7.70;5.35;;;;;;;20.06;51.46;99456.31;5003370;28;20033;-80
2022/05/07 10:46:09;;;;;;;6.60;5.38;;;;;;;20.50;50.59;99451.28;5006645;28;20554;-80
2022/05/07 10:49:04;;;;;;;7.68;5.40;;;;;;;20.99;49.98;99447.09;4995290;28;20068;-80
2022/05/07 10:51:35;;;;;;;5.53;4.95;;;;;;;20.97;49.74;99443.88;5009111;28;20500;-80
2022/05/07 10:54:03;;;;;;;5.82;5.15;;;;;;;21.28;49.66;99453.84;5006695;28;20029;-80
2022/05/07 10:56:30;;;;;;;6.70;4.20;;;;;;;21.19;50.01;99444.78;5028300;28;20453;-80
2022/05/07 10:58:57;;;;;;;7.45;5.45;;;;;;;21.09;50.06;99430.63;5000159;28;20030;-80
2022/05/07 11:01:24;;;;;;;5.82;4.55;;;;;;;21.08;49.96;99446.09;5001530;28;20366;-80
2022/05/07 11:04:05;;;;;;;6.75;5.20;;;;;;;21.14;49.93;99441.41;5001492;28;20037;-80
2022/05/07 11:06:39;;;;;;;5.10;4.28;;;;;;;21.15;50.13;99448.41;5010694;28;20029;-80
2022/05/07 11:09:05;;;;;;;9.93;7.32;;;;;;;21.00;49.85;99435.94;5001356;28;21275;-82
2022/05/07 11:11:30;;;;;;;16.92;8.40;;;;;;;20.97;49.78;99439.25;4995927;28;20056;-83
2022/05/07 11:13:56;;;;;;;17.30;8.25;;;;;;;20.78;49.26;99436.63;4993546;28;20090;-83
2022/05/07 11:16:23;;;;;;;21.88;9.15;;;;;;;20.75;49.70;99437.22;5018301;28;20037;-85
2022/05/07 11:18:51;;;;;;;21.25;8.27;;;;;;;20.75;49.02;99439.94;5009130;28;20041;-84
2022/05/07 11:21:20;;;;;;;12.68;8.40;;;;;;;20.83;49.11;99433.03;5028887;28;20113;-84
2022/05/07 11:23:53;;;;;;;11.25;7.35;;;;;;;20.78;48.46;99438.53;5025989;28;20072;-85
2022/05/07 11:26:20;;;;;;;11.73;7.20;;;;;;;20.75;48.62;99431.00;5012059;28;20025;-85
2022/05/07 11:28:46;;;;;;;10.65;7.68;;;;;;;20.67;48.80;99424.34;4990703;28;20454;-85
2022/05/07 11:31:30;;;;;;;11.18;7.55;;;;;;;20.62;48.33;99434.50;5007355;28;20455;-85
2022/05/07 11:34:06;;;;;;;12.73;8.05;;;;;;;20.61;48.37;99430.19;4982320;28;20458;-85
2022/05/07 11:36:32;;;;;;;9.35;6.93;;;;;;;20.59;48.36;99424.25;5004349;28;20508;-84
2022/05/07 11:38:59;;;;;;;7.32;5.70;;;;;;;20.61;48.75;99431.00;4998311;28;20038;-84
2022/05/07 11:41:25;;;;;;;8.82;7.05;;;;;;;20.56;49.17;99416.69;5023801;28;20048;-84
2022/05/07 11:46:46;;;;;;;7.35;5.43;;;;;;;21.26;48.38;99409.09;4996626;28;20092;-84
2022/05/07 11:49:12;;;;;;;11.70;5.60;;;;;;;21.23;47.68;99413.22;5008016;28;20477;-83
2022/05/07 11:51:37;;;;;;;9.45;4.70;;;;;;;21.35;48.07;99413.50;4984618;28;20044;-83
2022/05/07 11:54:10;;;;;;;9.55;5.07;;;;;;;21.67;47.47;99409.78;5001400;28;20104;-84
2022/05/07 11:56:46;;;;;;;10.68;4.97;;;;;;;22.05;47.33;99413.78;4992032;28;20489;-84
2022/05/07 11:59:13;;;;;;;13.63;3.85;;;;;;;22.03;47.01;99407.88;5025069;28;20111;-84
2022/05/07 12:01:39;;;;;;;5.45;4.30;;;;;;;22.22;46.53;99421.25;5003546;28;20041;-83
2022/05/07 12:04:09;;;;;;;5.07;4.22;;;;;;;22.22;46.77;99415.81;4997974;28;20021;-84